Time;durP1;ratioP1;P1;durP2;ratioP2;P2;SDS_P1;SDS_P2;PMS_P1;PMS_P2;Temp;Humidity;BMP_temperature;BMP_pressure;BME280_temperature;BME280_humidity;BME280_pressure;Samples;Min_cycle;Max_cycle;Signal;HPM_P1;HPM_P2
2022/02/07 00:03:48;;;;;;;0.20;0.20;;;;;;;6.27;100.00;99257.25;5021060;28;20484;-55
2022/02/07 00:06:15;;;;;;;0.20;0.10;;;;;;;6.28;98.70;99257.19;5022852;28;20488;-55
2022/02/07 00:08:42;;;;;;;0.20;0.10;;;;;;;6.24;96.47;99266.13;5028233;28;20501;-55
2022/02/07 00:11:09;;;;;;;0.20;0.10;;;;;;;6.32;96.64;99274.69;5026330;28;20494;-55
2022/02/07 00:13:35;;;;;;;0.20;0.10;;;;;;;6.23;95.99;99259.09;5020996;28;20479;-55
2022/02/07 00:16:02;;;;;;;0.20;0.10;;;;;;;6.15;95.21;99271.63;5023833;28;20540;-55
2022/02/07 00:18:29;;;;;;;0.20;0.20;;;;;;;6.18;96.92;99296.19;5028781;28;20504;-55
2022/02/07 00:20:57;;;;;;;0.20;0.10;;;;;;;6.20;97.51;99304.06;5026358;28;20456;-55
2022/02/07 00:23:24;;;;;;;0.20;0.10;;;;;;;6.34;95.09;99309.81;5020919;28;20523;-55
2022/02/07 00:25:50;;;;;;;0.20;0.10;;;;;;;6.40;94.10;99317.56;5021813;28;20532;-55
2022/02/07 00:28:17;;;;;;;0.20;0.10;;;;;;;6.24;93.85;99332.94;5027525;28;20476;-55
2022/02/07 00:30:43;;;;;;;0.20;0.10;;;;;;;6.29;93.12;99342.50;5027713;28;20486;-55
2022/02/07 00:33:10;;;;;;;0.20;0.10;;;;;;;6.30;93.46;99345.09;5007718;28;20495;-55
2022/02/07 00:35:37;;;;;;;0.20;0.10;;;;;;;6.03;95.04;99356.38;5020687;28;20487;-55
2022/02/07 00:38:09;;;;;;;0.20;0.20;;;;;;;6.08;95.17;99355.34;5011060;28;20892;-55
2022/02/07 00:46:23;;;;;;;0.20;0.20;;;;;;;6.08;93.44;99351.84;4996825;28;20487;-55
2022/02/07 00:48:49;;;;;;;0.20;0.20;;;;;;;6.12;94.01;99370.19;5032239;28;20547;-55
2022/02/07 00:51:16;;;;;;;0.20;0.10;;;;;;;5.94;93.35;99368.91;5022459;28;20498;-55
2022/02/07 00:53:43;;;;;;;0.20;0.20;;;;;;;5.93;94.74;99377.72;5020574;28;20499;-55
2022/02/07 00:56:09;;;;;;;0.20;0.10;;;;;;;6.04;94.06;99398.56;5025199;28;20524;-54
2022/02/07 00:58:36;;;;;;;0.20;0.10;;;;;;;6.04;93.75;99405.59;5026856;28;20472;-53
2022/02/07 01:01:02;;;;;;;0.20;0.20;;;;;;;5.92;94.41;99406.75;5022166;28;20451;-54
2022/02/07 01:03:29;;;;;;;0.20;0.10;;;;;;;6.12;93.14;99414.19;5019795;28;20506;-54
2022/02/07 01:05:56;;;;;;;0.20;0.10;;;;;;;6.00;93.21;99428.53;5024171;28;20898;-54
2022/02/07 01:08:34;;;;;;;0.30;0.30;;;;;;;5.81;94.63;99432.47;5026455;28;20917;-54
2022/02/07 01:11:35;;;;;;;0.20;0.10;;;;;;;5.74;94.76;99449.34;5024347;28;20472;-54
2022/02/07 01:16:53;;;;;;;0.20;0.10;;;;;;;5.67;96.86;99471.47;5021471;28;20452;-54
2022/02/07 01:54:36;;;;;;;0.20;0.10;;;;;;;4.57;100.00;99584.19;5019186;28;20530;-54
2022/02/07 01:57:06;;;;;;;0.20;0.10;;;;;;;4.66;100.00;99605.97;5019014;28;20472;-53
2022/02/07 01:59:33;;;;;;;0.20;0.10;;;;;;;4.66;100.00;99621.75;5022667;28;20539;-53
2022/02/07 02:02:00;;;;;;;0.20;0.10;;;;;;;4.83;100.00;99637.28;5025829;28;20492;-53
2022/02/07 02:04:26;;;;;;;0.20;0.10;;;;;;;4.76;100.00;99628.59;5022964;28;20574;-53
2022/02/07 02:06:53;;;;;;;0.20;0.10;;;;;;;4.75;100.00;99637.41;5016910;28;20558;-53
2022/02/07 02:09:20;;;;;;;0.20;0.10;;;;;;;4.85;100.00;99656.56;5022925;28;20475;-53
2022/02/07 02:11:46;;;;;;;0.20;0.10;;;;;;;4.97;100.00;99660.75;5019071;28;20531;-53
2022/02/07 02:46:46;;;;;;;0.20;0.10;;;;;;;4.19;100.00;99830.22;5023814;28;20451;-53
2022/02/07 02:49:12;;;;;;;0.20;0.10;;;;;;;4.29;100.00;99836.25;5029440;28;20491;-53
2022/02/07 02:51:39;;;;;;;0.20;0.10;;;;;;;4.45;100.00;99846.59;5028506;28;20486;-53
2022/02/07 02:54:06;;;;;;;0.20;0.10;;;;;;;4.34;100.00;99852.84;5022581;28;20880;-54
2022/02/07 02:56:34;;;;;;;0.20;0.10;;;;;;;4.40;100.00;99860.72;5022315;28;20510;-54
2022/02/07 02:59:00;;;;;;;0.20;0.10;;;;;;;4.40;100.00;99866.84;5011054;28;20540;-54
2022/02/07 03:01:27;;;;;;;0.20;0.10;;;;;;;4.39;100.00;99875.63;5029009;28;20530;-54
2022/02/07 03:03:53;;;;;;;0.20;0.10;;;;;;;4.37;100.00;99880.00;5003162;28;20492;-53
2022/02/07 03:06:20;;;;;;;0.20;0.10;;;;;;;4.35;100.00;99896.69;5026047;28;20487;-53
2022/02/07 03:08:47;;;;;;;0.20;0.10;;;;;;;4.22;100.00;99914.34;5028318;28;20562;-53
2022/02/07 03:11:19;;;;;;;0.20;0.20;;;;;;;4.39;100.00;99920.34;5028716;28;20455;-54
2022/02/07 03:19:00;;;;;;;0.20;0.10;;;;;;;4.54;100.00;99942.13;5023964;28;20453;-53
2022/02/07 03:21:27;;;;;;;0.20;0.10;;;;;;;4.73;100.00;99952.44;5028434;28;20448;-53
2022/02/07 03:23:54;;;;;;;0.20;0.10;;;;;;;4.75;100.00;99965.59;5026958;28;20479;-54
2022/02/07 03:26:21;;;;;;;0.20;0.10;;;;;;;4.61;100.00;99973.63;5029960;28;20540;-53
2022/02/07 03:28:48;;;;;;;0.20;0.10;;;;;;;4.80;100.00;99984.88;5015136;28;21013;-54
2022/02/07 03:31:16;;;;;;;0.20;0.10;;;;;;;4.69;100.00;99984.97;5020595;28;20455;-53
2022/02/07 03:33:43;;;;;;;0.20;0.10;;;;;;;4.58;100.00;100004.38;5035008;28;20479;-53
2022/02/07 03:36:11;;;;;;;0.20;0.10;;;;;;;4.47;100.00;100005.34;5024581;28;20476;-54
2022/02/07 03:38:38;;;;;;;0.20;0.10;;;;;;;4.56;100.00;100012.28;5026467;28;20651;-53
2022/02/07 03:41:06;;;;;;;0.20;0.10;;;;;;;4.65;100.00;100009.56;5028937;28;20492;-54
2022/02/07 03:43:33;;;;;;;0.20;0.10;;;;;;;4.47;100.00;100015.88;5027086;28;20491;-53
2022/02/07 03:46:02;;;;;;;0.20;0.10;;;;;;;4.47;100.00;100021.13;5021259;28;20502;-53
2022/02/07 03:48:29;;;;;;;0.20;0.10;;;;;;;4.47;100.00;100026.38;5022055;28;20555;-53
2022/02/07 03:50:56;;;;;;;0.20;0.20;;;;;;;4.53;100.00;100037.78;5028107;28;20479;-53
2022/02/07 03:53:23;;;;;;;0.20;0.10;;;;;;;4.56;100.00;100038.59;5027755;28;20451;-54
2022/02/07 03:55:50;;;;;;;0.20;0.10;;;;;;;4.55;100.00;100042.13;5027851;28;20449;-53
2022/02/07 03:58:20;;;;;;;0.33;0.30;;;;;;;4.65;100.00;100048.16;5028155;28;20499;-54
2022/02/07 04:00:52;;;;;;;0.20;0.10;;;;;;;4.61;99.94;100052.59;5022074;28;21035;-54
2022/02/07 04:03:22;;;;;;;0.20;0.10;;;;;;;4.58;100.00;100070.19;5021048;28;20453;-53
2022/02/07 04:05:56;;;;;;;0.20;0.10;;;;;;;4.85;98.24;100067.31;5031510;28;20523;-53
2022/02/07 04:08:36;;;;;;;0.20;0.13;;;;;;;4.81;98.24;100085.78;5030748;28;20495;-54
2022/02/07 04:11:13;;;;;;;0.20;0.10;;;;;;;4.75;98.69;100090.22;5026621;28;20472;-54
2022/02/07 04:13:48;;;;;;;0.20;0.10;;;;;;;5.00;97.54;100095.25;5027163;28;20452;-53
2022/02/07 04:16:15;;;;;;;0.30;0.30;;;;;;;4.84;98.80;100109.47;5027979;28;20482;-53
2022/02/07 04:18:59;;;;;;;0.20;0.10;;;;;;;4.98;98.04;100123.38;5014322;28;21020;-54
2022/02/07 04:21:25;;;;;;;0.20;0.10;;;;;;;4.82;98.59;100135.81;5018592;28;20539;-54
2022/02/07 04:23:52;;;;;;;0.20;0.10;;;;;;;4.81;98.66;100141.97;5023167;28;20452;-54
2022/02/07 04:26:18;;;;;;;0.20;0.10;;;;;;;4.78;99.23;100148.97;5027242;28;20543;-54
2022/02/07 04:28:45;;;;;;;0.20;0.10;;;;;;;4.93;98.83;100156.75;5023760;28;20495;-53
2022/02/07 04:31:12;;;;;;;0.20;0.10;;;;;;;4.76;99.54;100162.16;5018680;28;20444;-53
2022/02/07 04:33:39;;;;;;;0.20;0.10;;;;;;;4.73;99.70;100178.00;5023270;28;20457;-54
2022/02/07 04:36:07;;;;;;;0.20;0.10;;;;;;;4.76;98.69;100188.50;5030714;28;20760;-54
2022/02/07 04:38:34;;;;;;;0.73;0.73;;;;;;;4.80;99.10;100187.63;5024828;28;21054;-53
2022/02/07 04:41:01;;;;;;;0.20;0.10;;;;;;;4.69;98.75;100192.94;5020306;28;20474;-53
2022/02/07 04:43:28;;;;;;;0.20;0.10;;;;;;;4.59;99.03;100193.88;5022212;28;21049;-53
2022/02/07 04:46:47;;;;;;;0.20;0.10;;;;;;;4.76;99.39;100206.91;5027280;28;20580;-53
2022/02/07 04:49:08;;;;;;;0.20;0.10;;;;;;;4.75;98.94;100224.47;5018764;28;20563;-54
2022/02/07 04:59:38;;;;;;;0.20;0.10;;;;;;;4.72;98.46;100249.97;5023898;28;20491;-54
2022/02/07 05:02:23;;;;;;;0.20;0.10;;;;;;;4.93;97.88;100246.31;5026759;28;20484;-54
2022/02/07 05:05:10;;;;;;;0.20;0.10;;;;;;;4.66;97.50;100253.50;5026491;28;21000;-54
2022/02/07 05:16:08;;;;;;;0.20;0.10;;;;;;;4.58;98.13;100297.41;5019917;28;20487;-53
2022/02/07 05:18:35;;;;;;;0.20;0.10;;;;;;;4.68;98.75;100309.66;5008141;28;20877;-53
2022/02/07 05:21:01;;;;;;;0.20;0.10;;;;;;;4.76;98.06;100313.13;5019570;28;20452;-53
2022/02/07 05:23:28;;;;;;;0.20;0.10;;;;;;;4.65;97.92;100317.53;5025778;28;20515;-54
2022/02/07 05:26:01;;;;;;;0.20;0.10;;;;;;;4.75;98.11;100331.56;5026585;28;20570;-54
2022/02/07 05:28:28;;;;;;;0.20;0.10;;;;;;;4.67;97.97;100330.72;5021969;28;20558;-54
2022/02/07 05:30:54;;;;;;;0.20;0.13;;;;;;;4.66;98.32;100336.84;5015913;28;20476;-54
2022/02/07 05:33:21;;;;;;;0.20;0.20;;;;;;;4.58;98.48;100336.91;5024491;28;20484;-53
2022/02/07 05:35:47;;;;;;;0.20;0.20;;;;;;;4.89;99.57;100347.28;5027892;28;20792;-53
2022/02/07 05:38:14;;;;;;;0.20;0.10;;;;;;;4.82;98.38;100350.84;5022775;28;20927;-53
2022/02/07 05:40:51;;;;;;;0.30;0.30;;;;;;;4.80;98.20;100353.50;5019057;28;20539;-54
2022/02/07 05:43:18;;;;;;;0.20;0.10;;;;;;;4.63;98.88;100365.81;5032653;28;20451;-53
2022/02/07 05:45:45;;;;;;;0.20;0.10;;;;;;;4.66;98.00;100371.06;5019082;28;20487;-53
2022/02/07 05:48:12;;;;;;;0.20;0.10;;;;;;;4.76;98.01;100367.53;5022135;28;21032;-53
2022/02/07 05:50:38;;;;;;;0.20;0.10;;;;;;;4.68;98.25;100375.47;5026184;28;20535;-53
2022/02/07 05:53:05;;;;;;;0.20;0.10;;;;;;;4.67;98.09;100376.34;5023372;28;20534;-54
2022/02/07 05:55:32;;;;;;;0.20;0.10;;;;;;;4.73;97.62;100380.72;5019090;28;20935;-53
2022/02/07 05:57:59;;;;;;;0.20;0.10;;;;;;;4.57;98.04;100384.28;5021740;28;20476;-53
2022/02/07 06:00:32;;;;;;;0.20;0.10;;;;;;;4.71;96.94;100399.16;5025498;28;20485;-54
2022/02/07 06:03:00;;;;;;;0.20;0.10;;;;;;;4.58;97.60;100409.72;5024258;28;20447;-53
2022/02/07 06:05:28;;;;;;;0.20;0.10;;;;;;;4.61;97.42;100420.22;5018762;28;21044;-53
2022/02/07 06:07:55;;;;;;;0.20;0.10;;;;;;;4.61;96.88;100420.22;5032096;28;20559;-53
2022/02/07 06:10:22;;;;;;;0.20;0.10;;;;;;;4.49;97.67;100423.75;5018780;28;20483;-54
2022/02/07 06:12:49;;;;;;;0.20;0.10;;;;;;;4.34;98.26;100421.16;5019473;28;20495;-53
2022/02/07 06:15:17;;;;;;;0.20;0.10;;;;;;;4.45;98.24;100430.78;5025763;28;20481;-53
2022/02/07 06:17:49;;;;;;;0.20;0.10;;;;;;;4.43;98.53;100431.69;5025106;28;21078;-54
2022/02/07 06:20:15;;;;;;;0.20;0.10;;;;;;;4.30;98.71;100429.94;5025309;28;20883;-53
2022/02/07 06:22:42;;;;;;;0.20;0.10;;;;;;;4.52;98.71;100449.19;5025490;28;20539;-54
2022/02/07 06:25:09;;;;;;;0.20;0.10;;;;;;;4.34;98.81;100450.97;5019443;28;20519;-53
2022/02/07 06:27:35;;;;;;;0.20;0.10;;;;;;;4.42;98.91;100469.41;5018680;28;20472;-54
2022/02/07 06:30:03;;;;;;;0.20;0.10;;;;;;;4.41;99.21;100459.75;5028221;28;20475;-53
2022/02/07 06:32:30;;;;;;;0.20;0.10;;;;;;;4.60;99.08;100466.75;5030927;28;20479;-54
2022/02/07 06:34:56;;;;;;;0.20;0.10;;;;;;;4.67;98.73;100486.94;5020300;28;20482;-53
2022/02/07 06:37:23;;;;;;;0.20;0.10;;;;;;;4.61;97.72;100499.22;5021866;28;20512;-53
2022/02/07 06:39:49;;;;;;;0.20;0.10;;;;;;;4.61;97.53;100502.72;5023917;28;20483;-53
2022/02/07 06:42:18;;;;;;;0.20;0.10;;;;;;;4.54;97.77;100505.38;5025375;28;20451;-53
2022/02/07 06:44:44;;;;;;;0.20;0.10;;;;;;;4.46;98.41;100510.63;5020547;28;20539;-53
2022/02/07 06:47:11;;;;;;;0.20;0.10;;;;;;;4.56;98.39;100516.78;5018252;28;20555;-53
2022/02/07 06:49:37;;;;;;;0.20;0.10;;;;;;;4.46;99.08;100529.06;5023203;28;20492;-53
2022/02/07 06:52:04;;;;;;;0.20;0.10;;;;;;;4.46;100.00;100524.66;5025187;28;20483;-53
2022/02/07 06:54:31;;;;;;;0.20;0.10;;;;;;;4.56;99.62;100525.53;5021510;28;20530;-53
2022/02/07 06:56:57;;;;;;;0.20;0.10;;;;;;;4.47;100.00;100530.81;5018464;28;21013;-53
2022/02/07 06:59:27;;;;;;;0.20;0.10;;;;;;;4.51;100.00;100543.06;5022606;28;20962;-53
2022/02/07 07:01:54;;;;;;;0.20;0.10;;;;;;;4.56;100.00;100551.00;5025593;28;20491;-53
2022/02/07 07:04:22;;;;;;;0.20;0.10;;;;;;;4.41;100.00;100559.75;5021799;28;20479;-53
2022/02/07 07:06:48;;;;;;;0.20;0.10;;;;;;;4.44;100.00;100563.25;5029210;28;20570;-53
2022/02/07 07:09:15;;;;;;;0.20;0.10;;;;;;;4.63;100.00;100576.41;5021986;28;20836;-54
2022/02/07 07:11:42;;;;;;;0.20;0.10;;;;;;;4.70;100.00;100579.06;5025033;28;20532;-54
2022/02/07 07:14:29;;;;;;;0.20;0.10;;;;;;;4.54;100.00;100585.22;5022107;28;20538;-53
2022/02/07 07:16:57;;;;;;;0.20;0.10;;;;;;;4.51;100.00;100587.81;5022076;28;20521;-54
2022/02/07 07:19:26;;;;;;;0.20;0.10;;;;;;;4.57;100.00;100594.88;5021903;28;20487;-55
2022/02/07 07:21:53;;;;;;;0.20;0.20;;;;;;;4.47;100.00;100596.59;5028039;28;20484;-55
2022/02/07 07:24:19;;;;;;;0.20;0.10;;;;;;;4.59;100.00;100593.09;5028630;28;20489;-54
2022/02/07 07:26:46;;;;;;;0.20;0.10;;;;;;;4.54;100.00;100610.66;5022614;28;20582;-54
2022/02/07 07:29:17;;;;;;;0.20;0.10;;;;;;;4.75;100.00;100603.63;5020686;28;20544;-54
2022/02/07 07:31:49;;;;;;;0.20;0.10;;;;;;;4.87;100.00;100604.50;5023585;28;20540;-54
2022/02/07 07:34:18;;;;;;;0.20;0.10;;;;;;;4.87;100.00;100615.94;5021550;28;20539;-53
2022/02/07 07:36:46;;;;;;;0.20;0.10;;;;;;;4.74;100.00;100616.81;5028862;28;20471;-54
2022/02/07 07:39:14;;;;;;;0.20;0.10;;;;;;;4.69;100.00;100623.84;5028332;28;20452;-53
2022/02/07 07:41:43;;;;;;;0.20;0.10;;;;;;;4.74;100.00;100627.34;5024912;28;20887;-54
2022/02/07 07:44:09;;;;;;;0.20;0.10;;;;;;;4.89;100.00;100629.97;5021332;28;21016;-54
2022/02/07 07:46:37;;;;;;;0.20;0.10;;;;;;;5.06;100.00;100633.47;5024179;28;20574;-53
2022/02/07 07:49:16;;;;;;;0.20;0.10;;;;;;;5.00;100.00;100638.75;5028121;28;20499;-54
2022/02/07 07:51:56;;;;;;;0.20;0.10;;;;;;;5.12;99.36;100642.25;5027919;28;21006;-54
2022/02/07 07:54:40;;;;;;;0.20;0.10;;;;;;;5.01;99.43;100645.78;5027143;28;20526;-53
2022/02/07 08:02:39;;;;;;;0.20;0.10;;;;;;;5.36;98.66;100658.06;5013181;28;20479;-54
2022/02/07 08:05:17;;;;;;;0.20;0.10;;;;;;;5.31;98.38;100662.44;5020919;28;20456;-54
2022/02/07 08:07:51;;;;;;;0.20;0.10;;;;;;;5.30;97.34;100668.59;5034501;28;20537;-54
2022/02/07 08:12:48;;;;;;;0.20;0.10;;;;;;;5.24;98.66;100676.50;5022179;28;20515;-54
2022/02/07 08:15:16;;;;;;;0.20;0.10;;;;;;;5.24;98.41;100681.78;5027842;28;20528;-53
2022/02/07 08:17:43;;;;;;;0.20;0.20;;;;;;;5.36;98.31;100687.03;5026788;28;20503;-53
2022/02/07 08:20:14;;;;;;;0.20;0.13;;;;;;;5.31;97.59;100713.38;4998999;28;20464;-54
2022/02/07 08:22:41;;;;;;;0.20;0.10;;;;;;;5.29;98.44;100714.28;5016720;28;20576;-53
2022/02/07 08:25:08;;;;;;;0.20;0.10;;;;;;;5.45;97.94;100721.28;5026702;28;20453;-54
2022/02/07 08:27:37;;;;;;;0.20;0.20;;;;;;;5.41;98.08;100735.34;5026069;28;20527;-53
2022/02/07 08:30:04;;;;;;;0.20;0.10;;;;;;;5.44;97.60;100750.28;5021921;28;20531;-54
2022/02/07 08:32:30;;;;;;;0.20;0.10;;;;;;;5.80;97.83;100744.97;5032263;28;21032;-54
2022/02/07 08:35:00;;;;;;;0.20;0.10;;;;;;;5.83;96.79;100754.66;5022312;28;20542;-54
2022/02/07 08:37:29;;;;;;;0.20;0.10;;;;;;;5.95;96.70;100759.94;5023994;28;21040;-55
2022/02/07 08:39:55;;;;;;;0.20;0.10;;;;;;;6.16;96.35;100753.69;5024580;28;21016;-55
2022/02/07 08:42:22;;;;;;;0.20;0.10;;;;;;;6.16;95.70;100748.41;5027193;28;20448;-55
2022/02/07 08:44:49;;;;;;;0.20;0.10;;;;;;;6.13;96.09;100759.88;5023417;28;20490;-55
2022/02/07 08:47:16;;;;;;;0.23;0.17;;;;;;;6.37;95.35;100766.84;5020696;28;20570;-55
2022/02/07 08:49:44;;;;;;;0.20;0.20;;;;;;;6.24;96.19;100768.66;5024035;28;20485;-55
2022/02/07 08:52:12;;;;;;;0.20;0.10;;;;;;;6.23;95.11;100771.28;5027115;28;20584;-55
2022/02/07 08:54:39;;;;;;;0.20;0.10;;;;;;;6.39;95.52;100786.19;5024040;28;20447;-55
2022/02/07 08:57:17;;;;;;;0.20;0.10;;;;;;;6.45;95.50;100787.94;5020230;28;20507;-55
2022/02/07 08:59:56;;;;;;;0.20;0.10;;;;;;;6.56;95.44;100791.41;5021788;28;20488;-55
2022/02/07 09:07:37;;;;;;;0.20;0.10;;;;;;;6.81;94.54;100814.19;5013551;28;20574;-56
2022/02/07 09:10:04;;;;;;;0.20;0.10;;;;;;;6.67;93.22;100821.28;5020144;28;20479;-55
2022/02/07 09:12:32;;;;;;;0.20;0.10;;;;;;;6.92;94.68;100814.13;5022720;28;20476;-55
2022/02/07 09:15:06;;;;;;;0.20;0.10;;;;;;;6.96;94.34;100815.88;5026719;28;20531;-55
2022/02/07 09:17:32;;;;;;;0.20;0.10;;;;;;;6.96;92.41;100821.16;5025570;28;20992;-55
2022/02/07 09:19:59;;;;;;;0.20;0.10;;;;;;;7.08;94.10;100820.22;5019677;28;20549;-55
2022/02/07 09:22:26;;;;;;;0.20;0.10;;;;;;;7.01;92.77;100832.59;5003243;28;20449;-55
2022/02/07 09:24:52;;;;;;;0.30;0.27;;;;;;;7.13;92.32;100831.66;5026652;28;20928;-55
2022/02/07 09:27:19;;;;;;;0.20;0.20;;;;;;;6.96;93.01;100846.69;5025325;28;20491;-55
2022/02/07 09:29:45;;;;;;;0.20;0.10;;;;;;;7.05;93.57;100854.59;5014290;28;20529;-56
2022/02/07 09:32:12;;;;;;;0.20;0.10;;;;;;;7.10;93.06;100848.38;5025378;28;20494;-56
2022/02/07 09:34:40;;;;;;;0.20;0.20;;;;;;;6.98;91.68;100853.72;5013854;28;20448;-55
2022/02/07 09:37:07;;;;;;;0.20;0.10;;;;;;;7.11;91.50;100865.13;5020077;28;20507;-55
2022/02/07 09:39:33;;;;;;;0.30;0.30;;;;;;;7.18;92.04;100860.69;5026588;28;20472;-55
2022/02/07 09:42:02;;;;;;;0.20;0.20;;;;;;;7.35;90.49;100867.63;5025535;28;20459;-55
2022/02/07 09:44:40;;;;;;;0.20;0.20;;;;;;;7.47;90.85;100873.75;5019434;28;20452;-55
2022/02/07 09:47:09;;;;;;;0.20;0.10;;;;;;;7.45;89.06;100878.16;5019289;28;20500;-56
2022/02/07 09:49:36;;;;;;;0.20;0.20;;;;;;;7.58;91.03;100882.50;5024145;28;20451;-55
2022/02/07 09:52:04;;;;;;;0.30;0.20;;;;;;;7.76;89.15;100892.06;5025955;28;20483;-55
2022/02/07 09:54:32;;;;;;;0.20;0.20;;;;;;;7.85;89.20;100886.69;5021620;28;20869;-55
2022/02/07 09:56:58;;;;;;;0.20;0.10;;;;;;;7.78;89.56;100907.03;5018805;28;20982;-55
2022/02/07 09:59:28;;;;;;;0.20;0.20;;;;;;;7.86;89.48;100907.84;5023103;28;20448;-55
2022/02/07 10:01:59;;;;;;;0.30;0.20;;;;;;;7.72;90.06;100921.19;5026092;28;20531;-55
2022/02/07 10:04:42;;;;;;;0.20;0.20;;;;;;;7.76;88.97;100924.69;5023297;28;20448;-55
2022/02/07 10:15:10;;;;;;;0.30;0.20;;;;;;;8.12;87.24;100939.44;5025969;28;20452;-56
2022/02/07 10:18:18;;;;;;;0.20;0.20;;;;;;;8.07;85.78;100951.81;5024654;28;20542;-56
2022/02/07 10:21:25;;;;;;;0.20;0.20;;;;;;;8.24;85.86;100954.34;5008696;28;20543;-56
2022/02/07 10:46:06;;;;;;;0.20;0.20;;;;;;;8.12;86.60;101040.03;5018448;28;20574;-56
2022/02/07 10:48:41;;;;;;;0.20;0.20;;;;;;;8.17;86.80;101035.59;5018838;28;21030;-56
2022/02/07 10:51:20;;;;;;;0.20;0.10;;;;;;;8.26;87.51;101043.47;5022978;28;20443;-56
2022/02/07 10:53:55;;;;;;;0.20;0.10;;;;;;;8.05;86.54;101046.25;5022153;28;20539;-56
2022/02/07 10:56:27;;;;;;;0.20;0.20;;;;;;;8.09;86.68;101055.97;5025643;28;20526;-56
2022/02/07 10:58:55;;;;;;;0.20;0.20;;;;;;;8.13;87.37;101057.69;5029320;28;20547;-55
2022/02/07 11:01:38;;;;;;;0.20;0.20;;;;;;;8.36;86.25;101048.72;5027155;28;20452;-55
2022/02/07 11:04:11;;;;;;;0.20;0.20;;;;;;;8.20;86.88;101066.44;5028732;28;20444;-55
2022/02/07 11:06:40;;;;;;;0.20;0.10;;;;;;;8.26;85.87;101066.44;5030057;28;20522;-56
2022/02/07 11:27:51;;;;;;;0.30;0.20;;;;;;;8.60;84.75;101090.94;5028719;28;20495;-55
2022/02/07 11:30:40;;;;;;;0.20;0.13;;;;;;;8.42;85.79;101091.97;5025422;28;20450;-55
2022/02/07 11:33:54;;;;;;;0.20;0.20;;;;;;;8.45;83.81;101085.75;5028841;28;20481;-55
2022/02/07 11:36:35;;;;;;;0.20;0.10;;;;;;;8.64;84.76;101086.50;5013990;28;20938;-56
2022/02/07 11:39:16;;;;;;;0.20;0.10;;;;;;;8.64;83.68;101089.16;5028215;28;20494;-55
2022/02/07 11:42:08;;;;;;;0.30;0.20;;;;;;;8.73;84.41;101089.94;5008374;28;20501;-56
2022/02/07 11:44:38;;;;;;;0.20;0.20;;;;;;;8.83;84.10;101093.41;5010667;28;20452;-56
2022/02/07 11:47:23;;;;;;;0.30;0.20;;;;;;;8.69;84.67;101105.91;5021311;28;20531;-55
2022/02/07 11:49:53;;;;;;;0.20;0.20;;;;;;;8.83;84.01;101098.72;5024102;28;20475;-56
2022/02/07 11:52:26;;;;;;;0.30;0.20;;;;;;;8.98;82.08;101106.53;5028097;28;20449;-56
2022/02/07 11:54:58;;;;;;;0.30;0.27;;;;;;;8.73;80.99;101103.19;5027387;28;20475;-56
2022/02/07 11:57:36;;;;;;;0.30;0.20;;;;;;;8.91;81.44;101110.16;5021366;28;20499;-56
2022/02/07 12:00:18;;;;;;;0.30;0.20;;;;;;;8.83;80.33;101127.88;5020970;28;20528;-56
2022/02/07 12:02:48;;;;;;;0.27;0.20;;;;;;;8.99;80.35;101133.94;5024252;28;20544;-55
2022/02/07 12:05:21;;;;;;;0.30;0.20;;;;;;;8.82;80.89;101131.41;5029199;28;20480;-55
2022/02/07 12:08:06;;;;;;;0.30;0.20;;;;;;;9.06;80.11;101130.34;5034539;28;20491;-55
2022/02/07 12:10:39;;;;;;;0.27;0.20;;;;;;;9.12;79.58;101135.56;5026409;28;20453;-56
2022/02/07 12:13:42;;;;;;;0.30;0.20;;;;;;;8.97;82.94;101136.59;5027642;28;20483;-56
2022/02/07 12:16:14;;;;;;;0.30;0.20;;;;;;;9.07;83.50;101148.00;5027765;28;20570;-55
2022/02/07 12:18:41;;;;;;;0.23;0.17;;;;;;;8.97;80.82;101164.88;5022634;28;20528;-55
2022/02/07 12:21:25;;;;;;;0.20;0.20;;;;;;;8.72;78.54;101162.41;5020702;28;20491;-56
2022/02/07 12:23:56;;;;;;;0.20;0.20;;;;;;;8.52;82.27;101167.84;5023390;28;20531;-56
2022/02/07 12:26:25;;;;;;;0.20;0.20;;;;;;;8.18;83.61;101161.81;5027363;28;20532;-55
2022/02/07 12:28:58;;;;;;;0.20;0.20;;;;;;;8.26;84.11;101177.66;5024149;28;20500;-56
2022/02/07 12:31:27;;;;;;;0.30;0.20;;;;;;;8.25;83.49;101184.75;5020371;28;20957;-55
2022/02/07 12:33:55;;;;;;;0.20;0.20;;;;;;;8.21;83.39;101184.72;5021185;28;20476;-56
2022/02/07 12:36:28;;;;;;;0.20;0.20;;;;;;;8.15;83.65;101183.00;5030991;28;20515;-56
2022/02/07 12:38:57;;;;;;;0.20;0.10;;;;;;;8.15;83.06;101176.84;5027274;28;20490;-56
2022/02/07 12:41:24;;;;;;;0.30;0.20;;;;;;;8.61;82.86;101177.50;5021890;28;20941;-56
2022/02/07 12:43:53;;;;;;;0.30;0.20;;;;;;;8.30;83.25;101177.63;5020227;28;20480;-56
2022/02/07 12:46:27;;;;;;;0.30;0.20;;;;;;;8.08;85.71;101175.09;5025023;28;20989;-55
2022/02/07 12:51:26;;;;;;;0.20;0.20;;;;;;;8.05;87.27;101183.03;5023522;28;20539;-56
2022/02/07 12:53:53;;;;;;;0.20;0.13;;;;;;;8.18;86.40;101184.75;5020271;28;20517;-55
2022/02/07 12:56:22;;;;;;;0.20;0.20;;;;;;;8.32;87.25;101196.16;5023116;28;20807;-53
2022/02/07 12:58:51;;;;;;;0.20;0.10;;;;;;;8.58;86.70;101186.34;5026708;28;20516;-55
2022/02/07 13:01:23;;;;;;;0.20;0.20;;;;;;;8.65;84.82;101181.03;5025450;28;20476;-54
2022/02/07 13:04:03;;;;;;;0.30;0.20;;;;;;;8.61;82.40;101182.78;5020286;28;20476;-55
2022/02/07 13:06:39;;;;;;;0.30;0.20;;;;;;;8.65;81.23;101188.97;5030273;28;20535;-54
2022/02/07 13:09:29;;;;;;;0.30;0.20;;;;;;;8.56;81.90;101197.84;5021740;28;20933;-54
2022/02/07 13:12:05;;;;;;;0.27;0.20;;;;;;;8.38;82.84;101209.44;5026251;28;20492;-54
2022/02/07 13:14:38;;;;;;;0.27;0.13;;;;;;;8.08;83.93;101220.97;5026836;28;20466;-54
2022/02/07 13:17:08;;;;;;;0.30;0.20;;;;;;;7.89;85.60;101224.56;5021480;28;20464;-54
2022/02/07 13:19:41;;;;;;;0.20;0.20;;;;;;;7.97;84.65;101221.03;5019953;28;20455;-54
2022/02/07 13:22:08;;;;;;;0.20;0.20;;;;;;;7.85;83.82;101229.00;5023310;28;20480;-54
2022/02/07 13:24:37;;;;;;;0.20;0.10;;;;;;;7.84;83.71;101226.38;5026092;28;20449;-54
2022/02/07 13:27:07;;;;;;;0.20;0.10;;;;;;;7.95;82.43;101224.56;5023505;28;20483;-55
2022/02/07 13:29:41;;;;;;;0.20;0.20;;;;;;;8.20;81.71;101230.66;5015516;28;20950;-55
2022/02/07 13:32:08;;;;;;;0.30;0.10;;;;;;;8.19;81.37;101243.00;5024571;28;20471;-54
2022/02/07 13:34:37;;;;;;;0.20;0.20;;;;;;;8.36;80.45;101248.31;5019094;28;20874;-54
2022/02/07 13:37:14;;;;;;;0.30;0.20;;;;;;;8.45;77.20;101250.00;5024060;28;20959;-54
2022/02/07 13:40:17;;;;;;;0.30;0.20;;;;;;;8.65;79.22;101257.88;5007449;28;20527;-54
2022/02/07 13:42:49;;;;;;;0.20;0.20;;;;;;;8.41;79.97;101262.41;5019311;28;20462;-54
2022/02/07 13:45:28;;;;;;;0.30;0.20;;;;;;;8.41;80.36;101258.88;5019948;28;20879;-54
2022/02/07 13:47:57;;;;;;;0.30;0.20;;;;;;;8.54;80.51;101274.72;5020637;28;20491;-54
2022/02/07 13:50:29;;;;;;;0.30;0.20;;;;;;;8.76;78.88;101272.81;5019200;28;21038;-54
2022/02/07 13:52:58;;;;;;;0.20;0.10;;;;;;;8.60;78.09;101281.72;5023128;28;20639;-55
2022/02/07 13:55:28;;;;;;;0.23;0.13;;;;;;;8.61;78.14;101273.78;5026101;28;20485;-55
2022/02/07 13:58:05;;;;;;;0.20;0.17;;;;;;;8.62;78.98;101277.31;5023217;28;20499;-54
2022/02/07 14:00:37;;;;;;;0.27;0.20;;;;;;;8.50;78.81;101274.75;5018931;28;20490;-54
2022/02/07 14:03:18;;;;;;;0.30;0.20;;;;;;;8.74;79.43;101273.72;5020014;28;20503;-54
2022/02/07 14:05:48;;;;;;;0.20;0.10;;;;;;;8.91;79.71;101263.91;5020060;28;20486;-54
2022/02/07 14:08:17;;;;;;;0.30;0.20;;;;;;;8.64;79.45;101257.00;5030256;28;21155;-54
2022/02/07 14:10:45;;;;;;;0.20;0.20;;;;;;;8.56;80.01;101264.09;5021739;28;20455;-54
2022/02/07 14:13:17;;;;;;;0.30;0.20;;;;;;;8.49;81.31;101267.66;5018860;28;20491;-54
2022/02/07 14:15:46;;;;;;;0.30;0.20;;;;;;;8.58;81.59;101273.78;5022287;28;20448;-54
2022/02/07 14:18:17;;;;;;;0.30;0.20;;;;;;;8.83;80.99;101274.56;5025445;28;20465;-56
2022/02/07 14:20:45;;;;;;;0.30;0.20;;;;;;;8.52;80.88;101286.22;5013034;28;20461;-56
2022/02/07 14:23:15;;;;;;;0.30;0.20;;;;;;;8.46;81.13;101287.09;5023880;28;20491;-56
2022/02/07 14:25:44;;;;;;;0.30;0.20;;;;;;;8.50;82.22;101283.56;5024432;28;20528;-56
2022/02/07 14:28:12;;;;;;;0.30;0.20;;;;;;;8.50;82.51;101283.56;5029370;28;20583;-56
2022/02/07 14:30:38;;;;;;;0.23;0.20;;;;;;;8.48;80.51;101285.31;5029170;28;20447;-56
2022/02/07 14:33:05;;;;;;;0.30;0.20;;;;;;;8.52;81.10;101279.13;5030330;28;20473;-55
2022/02/07 14:35:33;;;;;;;0.20;0.13;;;;;;;8.58;79.42;101279.09;5028872;28;20487;-56